sensor_id;sensor_type;location;lat;lon;timestamp;temperature;humidity
10010;DHT22;5044;48.652;9.250;2023-02-13T00:01:01;0.70;99.90
10010;DHT22;5044;48.652;9.250;2023-02-13T00:03:28;0.70;99.90
10010;DHT22;5044;48.652;9.250;2023-02-13T00:05:55;0.70;99.90
10010;DHT22;5044;48.652;9.250;2023-02-13T00:08:22;0.90;99.90
10010;DHT22;5044;48.652;9.250;2023-02-13T00:10:49;0.80;99.90
10010;DHT22;5044;48.652;9.250;2023-02-13T00:13:17;0.80;99.90
10010;DHT22;5044;48.652;9.250;2023-02-13T00:15:44;0.70;99.90
10010;DHT22;5044;48.652;9.250;2023-02-13T00:18:11;1.10;99.90
10010;DHT22;5044;48.652;9.250;2023-02-13T00:20:38;0.80;99.90
10010;DHT22;5044;48.652;9.250;2023-02-13T00:23:04;1.60;99.90
10010;DHT22;5044;48.652;9.250;2023-02-13T00:25:31;0.70;99.90
10010;DHT22;5044;48.652;9.250;2023-02-13T00:27:58;0.70;99.90
10010;DHT22;5044;48.652;9.250;2023-02-13T00:30:26;0.80;99.90
10010;DHT22;5044;48.652;9.250;2023-02-13T00:32:53;0.70;99.90
10010;DHT22;5044;48.652;9.250;2023-02-13T00:35:20;1.60;99.90
10010;DHT22;5044;48.652;9.250;2023-02-13T00:37:47;0.60;99.90
10010;DHT22;5044;48.652;9.250;2023-02-13T00:40:14;0.70;99.90
10010;DHT22;5044;48.652;9.250;2023-02-13T00:42:40;0.70;99.90
10010;DHT22;5044;48.652;9.250;2023-02-13T00:45:08;0.70;99.90
10010;DHT22;5044;48.652;9.250;2023-02-13T00:47:37;0.60;99.90
10010;DHT22;5044;48.652;9.250;2023-02-13T00:50:04;0.60;99.90
10010;DHT22;5044;48.652;9.250;2023-02-13T00:52:32;0.40;99.90
10010;DHT22;5044;48.652;9.250;2023-02-13T00:54:59;0.60;99.90
10010;DHT22;5044;48.652;9.250;2023-02-13T00:57:25;0.50;99.90
10010;DHT22;5044;48.652;9.250;2023-02-13T00:59:52;1.00;99.90
10010;DHT22;5044;48.652;9.250;2023-02-13T01:02:19;0.50;99.90
10010;DHT22;5044;48.652;9.250;2023-02-13T01:04:47;0.70;99.90
10010;DHT22;5044;48.652;9.250;2023-02-13T01:07:14;0.50;99.90
10010;DHT22;5044;48.652;9.250;2023-02-13T01:09:41;0.50;99.90
10010;DHT22;5044;48.652;9.250;2023-02-13T01:12:08;0.40;99.90
10010;DHT22;5044;48.652;9.250;2023-02-13T01:14:35;1.10;99.90
10010;DHT22;5044;48.652;9.250;2023-02-13T01:17:02;0.20;99.90
10010;DHT22;5044;48.652;9.250;2023-02-13T01:19:29;0.50;99.90
10010;DHT22;5044;48.652;9.250;2023-02-13T01:21:57;-0.10;99.90
10010;DHT22;5044;48.652;9.250;2023-02-13T01:24:24;-0.20;99.90
10010;DHT22;5044;48.652;9.250;2023-02-13T01:26:54;0.10;99.90
10010;DHT22;5044;48.652;9.250;2023-02-13T01:29:21;0.10;99.90
10010;DHT22;5044;48.652;9.250;2023-02-13T01:31:48;0.00;99.90
10010;DHT22;5044;48.652;9.250;2023-02-13T01:34:15;-0.10;99.90
10010;DHT22;5044;48.652;9.250;2023-02-13T01:36:41;-0.20;99.90
10010;DHT22;5044;48.652;9.250;2023-02-13T01:39:11;-0.20;99.90
10010;DHT22;5044;48.652;9.250;2023-02-13T01:41:38;-1.20;99.90
10010;DHT22;5044;48.652;9.250;2023-02-13T01:47:06;-0.30;99.90
10010;DHT22;5044;48.652;9.250;2023-02-13T01:49:34;0.00;99.90
10010;DHT22;5044;48.652;9.250;2023-02-13T01:52:01;-0.30;99.90
10010;DHT22;5044;48.652;9.250;2023-02-13T01:54:31;0.10;99.90
10010;DHT22;5044;48.652;9.250;2023-02-13T01:57:02;0.50;99.90
10010;DHT22;5044;48.652;9.250;2023-02-13T01:59:33;-0.30;99.90
10010;DHT22;5044;48.652;9.250;2023-02-13T02:02:03;-0.20;99.90
10010;DHT22;5044;48.652;9.250;2023-02-13T02:04:31;-0.30;99.90
10010;DHT22;5044;48.652;9.250;2023-02-13T02:07:03;-0.30;99.90
10010;DHT22;5044;48.652;9.250;2023-02-13T02:09:37;-0.10;99.90
10010;DHT22;5044;48.652;9.250;2023-02-13T02:12:08;0.10;99.90
10010;DHT22;5044;48.652;9.250;2023-02-13T02:14:36;-0.10;99.90
10010;DHT22;5044;48.652;9.250;2023-02-13T02:17:03;-0.40;99.90
10010;DHT22;5044;48.652;9.250;2023-02-13T02:19:36;-0.70;99.90
10010;DHT22;5044;48.652;9.250;2023-02-13T02:34:26;-0.60;99.90
10010;DHT22;5044;48.652;9.250;2023-02-13T02:37:04;-0.60;99.90
10010;DHT22;5044;48.652;9.250;2023-02-13T02:39:45;-0.10;99.90
10010;DHT22;5044;48.652;9.250;2023-02-13T02:42:23;-0.10;99.90
10010;DHT22;5044;48.652;9.250;2023-02-13T02:44:56;0.10;99.90
10010;DHT22;5044;48.652;9.250;2023-02-13T02:47:30;-0.20;99.90
10010;DHT22;5044;48.652;9.250;2023-02-13T02:50:32;-0.30;99.90
10010;DHT22;5044;48.652;9.250;2023-02-13T02:53:17;0.10;99.90
10010;DHT22;5044;48.652;9.250;2023-02-13T02:55:53;-0.10;99.90
10010;DHT22;5044;48.652;9.250;2023-02-13T02:58:24;-0.30;99.90
10010;DHT22;5044;48.652;9.250;2023-02-13T03:01:14;0.50;99.90
10010;DHT22;5044;48.652;9.250;2023-02-13T03:04:00;-0.40;99.90
10010;DHT22;5044;48.652;9.250;2023-02-13T03:06:53;-0.30;99.90
10010;DHT22;5044;48.652;9.250;2023-02-13T03:09:25;-0.50;99.90
10010;DHT22;5044;48.652;9.250;2023-02-13T03:12:16;-0.90;99.90
10010;DHT22;5044;48.652;9.250;2023-02-13T03:15:03;-0.20;99.90
10010;DHT22;5044;48.652;9.250;2023-02-13T03:17:30;-0.60;99.90
10010;DHT22;5044;48.652;9.250;2023-02-13T03:20:22;-0.50;99.90
10010;DHT22;5044;48.652;9.250;2023-02-13T03:23:15;0.00;99.90
10010;DHT22;5044;48.652;9.250;2023-02-13T03:26:05;-0.10;99.90
10010;DHT22;5044;48.652;9.250;2023-02-13T03:28:41;-0.60;99.90
10010;DHT22;5044;48.652;9.250;2023-02-13T03:31:31;-0.70;99.90
10010;DHT22;5044;48.652;9.250;2023-02-13T03:34:03;-0.60;99.90
10010;DHT22;5044;48.652;9.250;2023-02-13T03:36:37;-0.30;99.90
10010;DHT22;5044;48.652;9.250;2023-02-13T03:39:39;-0.60;99.90
10010;DHT22;5044;48.652;9.250;2023-02-13T03:42:12;-0.70;99.90
10010;DHT22;5044;48.652;9.250;2023-02-13T03:44:45;-0.80;99.90
10010;DHT22;5044;48.652;9.250;2023-02-13T03:47:36;-0.80;99.90
10010;DHT22;5044;48.652;9.250;2023-02-13T03:50:05;-1.00;99.90
10010;DHT22;5044;48.652;9.250;2023-02-13T03:52:37;-0.90;99.90
10010;DHT22;5044;48.652;9.250;2023-02-13T03:55:09;-0.90;99.90
10010;DHT22;5044;48.652;9.250;2023-02-13T03:58:03;-0.90;99.90
10010;DHT22;5044;48.652;9.250;2023-02-13T04:00:51;-0.80;99.90
10010;DHT22;5044;48.652;9.250;2023-02-13T04:03:23;-1.00;99.90
10010;DHT22;5044;48.652;9.250;2023-02-13T04:05:55;-1.60;99.90
10010;DHT22;5044;48.652;9.250;2023-02-13T04:08:24;-1.10;99.90
10010;DHT22;5044;48.652;9.250;2023-02-13T04:10:56;-1.20;99.90
10010;DHT22;5044;48.652;9.250;2023-02-13T04:13:28;-1.00;99.90
10010;DHT22;5044;48.652;9.250;2023-02-13T04:16:02;-1.00;99.90
10010;DHT22;5044;48.652;9.250;2023-02-13T04:18:32;-1.60;99.90
10010;DHT22;5044;48.652;9.250;2023-02-13T04:21:01;-1.40;99.90
10010;DHT22;5044;48.652;9.250;2023-02-13T04:23:28;-1.50;99.90
10010;DHT22;5044;48.652;9.250;2023-02-13T04:25:57;-1.50;99.90
10010;DHT22;5044;48.652;9.250;2023-02-13T04:28:25;-1.50;99.90
10010;DHT22;5044;48.652;9.250;2023-02-13T04:30:52;-1.60;99.90
10010;DHT22;5044;48.652;9.250;2023-02-13T04:33:19;-1.60;99.90
10010;DHT22;5044;48.652;9.250;2023-02-13T04:35:46;-1.60;99.90
10010;DHT22;5044;48.652;9.250;2023-02-13T04:38:13;-1.20;99.90
10010;DHT22;5044;48.652;9.250;2023-02-13T04:40:40;-1.60;99.90
10010;DHT22;5044;48.652;9.250;2023-02-13T04:43:08;-2.00;99.90
10010;DHT22;5044;48.652;9.250;2023-02-13T04:45:35;-1.60;99.90
10010;DHT22;5044;48.652;9.250;2023-02-13T04:48:02;-1.40;99.90
10010;DHT22;5044;48.652;9.250;2023-02-13T04:50:29;-1.60;99.90
10010;DHT22;5044;48.652;9.250;2023-02-13T04:52:56;-1.60;99.90
10010;DHT22;5044;48.652;9.250;2023-02-13T04:55:25;-1.10;99.90
10010;DHT22;5044;48.652;9.250;2023-02-13T04:57:53;-1.40;99.90
10010;DHT22;5044;48.652;9.250;2023-02-13T05:00:24;-1.60;99.90
10010;DHT22;5044;48.652;9.250;2023-02-13T05:02:52;-1.70;99.90
10010;DHT22;5044;48.652;9.250;2023-02-13T05:05:19;-1.00;99.90
10010;DHT22;5044;48.652;9.250;2023-02-13T05:07:46;-1.70;99.90
10010;DHT22;5044;48.652;9.250;2023-02-13T05:10:13;-1.70;99.90
10010;DHT22;5044;48.652;9.250;2023-02-13T05:12:40;-1.70;99.90
10010;DHT22;5044;48.652;9.250;2023-02-13T05:15:08;-1.00;99.90
10010;DHT22;5044;48.652;9.250;2023-02-13T05:17:36;-1.70;99.90
10010;DHT22;5044;48.652;9.250;2023-02-13T05:20:03;-1.60;99.90
10010;DHT22;5044;48.652;9.250;2023-02-13T05:22:30;-1.60;99.90
10010;DHT22;5044;48.652;9.250;2023-02-13T05:25:14;-1.60;99.90
10010;DHT22;5044;48.652;9.250;2023-02-13T05:27:41;-1.60;99.90
10010;DHT22;5044;48.652;9.250;2023-02-13T05:30:09;-1.00;99.90
10010;DHT22;5044;48.652;9.250;2023-02-13T05:32:37;-1.80;99.90
10010;DHT22;5044;48.652;9.250;2023-02-13T05:35:04;-1.70;99.90
10010;DHT22;5044;48.652;9.250;2023-02-13T05:37:31;-2.60;99.90
10010;DHT22;5044;48.652;9.250;2023-02-13T05:39:58;-1.70;99.90
10010;DHT22;5044;48.652;9.250;2023-02-13T05:42:25;-1.30;99.90
10010;DHT22;5044;48.652;9.250;2023-02-13T05:44:52;-1.50;99.90
10010;DHT22;5044;48.652;9.250;2023-02-13T05:47:27;-1.70;99.90
10010;DHT22;5044;48.652;9.250;2023-02-13T05:49:56;-1.60;99.90
10010;DHT22;5044;48.652;9.250;2023-02-13T05:52:23;-1.60;99.90
10010;DHT22;5044;48.652;9.250;2023-02-13T05:54:50;-0.90;99.90
10010;DHT22;5044;48.652;9.250;2023-02-13T05:57:17;-1.40;99.90
10010;DHT22;5044;48.652;9.250;2023-02-13T05:59:44;-1.90;99.90
10010;DHT22;5044;48.652;9.250;2023-02-13T06:02:11;-1.80;99.90
10010;DHT22;5044;48.652;9.250;2023-02-13T06:04:38;-1.70;99.90
10010;DHT22;5044;48.652;9.250;2023-02-13T06:07:07;-1.80;99.90
10010;DHT22;5044;48.652;9.250;2023-02-13T06:09:34;-1.90;99.90
10010;DHT22;5044;48.652;9.250;2023-02-13T06:12:01;-1.40;99.90
10010;DHT22;5044;48.652;9.250;2023-02-13T06:14:28;-1.90;99.90
10010;DHT22;5044;48.652;9.250;2023-02-13T06:16:55;-1.50;99.90
10010;DHT22;5044;48.652;9.250;2023-02-13T06:19:22;-1.60;99.90
10010;DHT22;5044;48.652;9.250;2023-02-13T06:21:49;-2.00;99.90
10010;DHT22;5044;48.652;9.250;2023-02-13T06:24:23;-2.50;99.90
10010;DHT22;5044;48.652;9.250;2023-02-13T06:26:50;-2.20;99.90
10010;DHT22;5044;48.652;9.250;2023-02-13T06:29:17;-2.20;99.90
10010;DHT22;5044;48.652;9.250;2023-02-13T06:31:44;-1.60;99.90
10010;DHT22;5044;48.652;9.250;2023-02-13T06:34:12;-2.30;99.90
10010;DHT22;5044;48.652;9.250;2023-02-13T06:36:39;-2.40;99.90
10010;DHT22;5044;48.652;9.250;2023-02-13T06:39:08;-1.40;99.90
10010;DHT22;5044;48.652;9.250;2023-02-13T06:41:37;-1.30;99.90
10010;DHT22;5044;48.652;9.250;2023-02-13T06:44:04;-2.20;99.90
10010;DHT22;5044;48.652;9.250;2023-02-13T06:46:32;-2.30;99.90
10010;DHT22;5044;48.652;9.250;2023-02-13T06:49:15;-1.70;99.90
10010;DHT22;5044;48.652;9.250;2023-02-13T06:51:42;-2.40;99.90
10010;DHT22;5044;48.652;9.250;2023-02-13T06:54:09;-2.50;99.90
10010;DHT22;5044;48.652;9.250;2023-02-13T06:56:38;-2.50;99.90
10010;DHT22;5044;48.652;9.250;2023-02-13T06:59:05;-1.90;99.90
10010;DHT22;5044;48.652;9.250;2023-02-13T07:01:33;-2.40;99.90
10010;DHT22;5044;48.652;9.250;2023-02-13T07:04:27;-1.60;99.90
10010;DHT22;5044;48.652;9.250;2023-02-13T07:06:54;-2.50;99.90
10010;DHT22;5044;48.652;9.250;2023-02-13T07:09:21;-2.50;99.90
10010;DHT22;5044;48.652;9.250;2023-02-13T07:11:53;-1.90;99.90
10010;DHT22;5044;48.652;9.250;2023-02-13T07:14:20;-2.40;99.90
10010;DHT22;5044;48.652;9.250;2023-02-13T07:16:47;-2.40;99.90
10010;DHT22;5044;48.652;9.250;2023-02-13T07:19:14;-2.00;99.90
10010;DHT22;5044;48.652;9.250;2023-02-13T07:21:41;-2.50;99.90
10010;DHT22;5044;48.652;9.250;2023-02-13T07:24:08;-2.50;99.90
10010;DHT22;5044;48.652;9.250;2023-02-13T07:26:35;-2.20;99.90
10010;DHT22;5044;48.652;9.250;2023-02-13T07:29:03;-2.30;99.90
10010;DHT22;5044;48.652;9.250;2023-02-13T07:31:31;-2.20;99.90
10010;DHT22;5044;48.652;9.250;2023-02-13T07:33:59;-1.80;99.90
10010;DHT22;5044;48.652;9.250;2023-02-13T07:36:26;-1.20;99.90
10010;DHT22;5044;48.652;9.250;2023-02-13T07:38:53;-1.40;99.90
10010;DHT22;5044;48.652;9.250;2023-02-13T07:41:20;-1.90;99.90
10010;DHT22;5044;48.652;9.250;2023-02-13T07:43:50;-1.00;99.90
10010;DHT22;5044;48.652;9.250;2023-02-13T07:46:18;-1.60;99.90
10010;DHT22;5044;48.652;9.250;2023-02-13T07:48:45;-1.60;99.90
10010;DHT22;5044;48.652;9.250;2023-02-13T07:51:12;-0.50;99.90
10010;DHT22;5044;48.652;9.250;2023-02-13T07:53:39;-1.30;99.90
10010;DHT22;5044;48.652;9.250;2023-02-13T07:56:06;-0.20;99.90
10010;DHT22;5044;48.652;9.250;2023-02-13T07:58:34;-1.10;99.90
10010;DHT22;5044;48.652;9.250;2023-02-13T08:01:05;-0.70;99.90
10010;DHT22;5044;48.652;9.250;2023-02-13T08:03:34;-0.30;99.90
10010;DHT22;5044;48.652;9.250;2023-02-13T08:06:01;-0.40;99.90
10010;DHT22;5044;48.652;9.250;2023-02-13T08:08:28;0.10;99.90
10010;DHT22;5044;48.652;9.250;2023-02-13T08:10:55;-0.10;99.90
10010;DHT22;5044;48.652;9.250;2023-02-13T08:13:40;0.10;99.90
10010;DHT22;5044;48.652;9.250;2023-02-13T08:16:08;0.20;99.90
10010;DHT22;5044;48.652;9.250;2023-02-13T08:18:36;0.40;99.90
10010;DHT22;5044;48.652;9.250;2023-02-13T08:21:03;0.50;99.90
10010;DHT22;5044;48.652;9.250;2023-02-13T08:23:30;0.70;99.90
10010;DHT22;5044;48.652;9.250;2023-02-13T08:25:58;1.40;99.90
10010;DHT22;5044;48.652;9.250;2023-02-13T08:28:26;0.90;99.90
10010;DHT22;5044;48.652;9.250;2023-02-13T08:30:53;1.10;99.90
10010;DHT22;5044;48.652;9.250;2023-02-13T08:33:20;1.70;99.90
10010;DHT22;5044;48.652;9.250;2023-02-13T08:35:48;2.10;99.90
10010;DHT22;5044;48.652;9.250;2023-02-13T08:38:15;1.50;99.90
10010;DHT22;5044;48.652;9.250;2023-02-13T08:40:42;1.90;99.90
10010;DHT22;5044;48.652;9.250;2023-02-13T08:43:09;1.80;99.90
10010;DHT22;5044;48.652;9.250;2023-02-13T08:45:36;2.00;99.90
10010;DHT22;5044;48.652;9.250;2023-02-13T08:48:03;2.10;99.90
10010;DHT22;5044;48.652;9.250;2023-02-13T08:50:30;2.20;99.90
10010;DHT22;5044;48.652;9.250;2023-02-13T08:52:59;2.40;99.90
10010;DHT22;5044;48.652;9.250;2023-02-13T08:55:26;2.60;99.90
10010;DHT22;5044;48.652;9.250;2023-02-13T08:57:54;2.70;99.90
10010;DHT22;5044;48.652;9.250;2023-02-13T09:00:21;3.30;99.90
10010;DHT22;5044;48.652;9.250;2023-02-13T09:02:48;3.10;99.90
10010;DHT22;5044;48.652;9.250;2023-02-13T09:05:15;3.10;99.90
10010;DHT22;5044;48.652;9.250;2023-02-13T09:07:42;3.30;99.90
10010;DHT22;5044;48.652;9.250;2023-02-13T09:10:11;3.40;99.90
10010;DHT22;5044;48.652;9.250;2023-02-13T09:12:38;3.20;99.90
10010;DHT22;5044;48.652;9.250;2023-02-13T09:15:05;3.70;99.90
10010;DHT22;5044;48.652;9.250;2023-02-13T09:17:32;3.80;99.90
10010;DHT22;5044;48.652;9.250;2023-02-13T09:19:59;4.00;99.90
10010;DHT22;5044;48.652;9.250;2023-02-13T09:22:26;4.10;99.90
10010;DHT22;5044;48.652;9.250;2023-02-13T09:24:52;4.30;99.90
10010;DHT22;5044;48.652;9.250;2023-02-13T09:27:20;4.50;99.90
10010;DHT22;5044;48.652;9.250;2023-02-13T09:29:47;4.80;99.90
10010;DHT22;5044;48.652;9.250;2023-02-13T09:32:14;4.70;99.90
10010;DHT22;5044;48.652;9.250;2023-02-13T09:34:41;4.70;99.90
10010;DHT22;5044;48.652;9.250;2023-02-13T09:37:08;5.00;99.90
10010;DHT22;5044;48.652;9.250;2023-02-13T09:39:35;5.10;99.90
10010;DHT22;5044;48.652;9.250;2023-02-13T09:42:05;5.20;99.90
10010;DHT22;5044;48.652;9.250;2023-02-13T09:44:40;5.20;99.90
10010;DHT22;5044;48.652;9.250;2023-02-13T09:47:14;5.80;99.90
10010;DHT22;5044;48.652;9.250;2023-02-13T09:49:44;5.80;99.90
10010;DHT22;5044;48.652;9.250;2023-02-13T09:52:12;5.90;99.90
10010;DHT22;5044;48.652;9.250;2023-02-13T09:54:40;6.00;99.90
10010;DHT22;5044;48.652;9.250;2023-02-13T09:57:14;6.10;99.90
10010;DHT22;5044;48.652;9.250;2023-02-13T09:59:52;6.20;99.90
10010;DHT22;5044;48.652;9.250;2023-02-13T10:02:38;6.50;99.90
10010;DHT22;5044;48.652;9.250;2023-02-13T10:05:20;6.70;99.90
10010;DHT22;5044;48.652;9.250;2023-02-13T10:07:52;7.30;99.90
10010;DHT22;5044;48.652;9.250;2023-02-13T10:10:29;6.80;99.90
10010;DHT22;5044;48.652;9.250;2023-02-13T10:13:15;6.90;99.90
10010;DHT22;5044;48.652;9.250;2023-02-13T10:15:49;7.00;99.90
10010;DHT22;5044;48.652;9.250;2023-02-13T10:18:20;7.10;99.90
10010;DHT22;5044;48.652;9.250;2023-02-13T10:20:49;7.40;99.90
10010;DHT22;5044;48.652;9.250;2023-02-13T10:23:22;7.50;99.90
10010;DHT22;5044;48.652;9.250;2023-02-13T10:25:54;7.80;99.90
10010;DHT22;5044;48.652;9.250;2023-02-13T10:28:29;8.10;99.90
10010;DHT22;5044;48.652;9.250;2023-02-13T10:31:02;8.10;99.80
10010;DHT22;5044;48.652;9.250;2023-02-13T10:33:34;8.20;99.90
10010;DHT22;5044;48.652;9.250;2023-02-13T10:36:10;8.20;99.90
10010;DHT22;5044;48.652;9.250;2023-02-13T10:38:43;8.50;99.90
10010;DHT22;5044;48.652;9.250;2023-02-13T10:41:23;8.80;98.80
10010;DHT22;5044;48.652;9.250;2023-02-13T10:44:03;8.90;99.90
10010;DHT22;5044;48.652;9.250;2023-02-13T10:46:40;8.90;99.30
10010;DHT22;5044;48.652;9.250;2023-02-13T10:49:44;9.30;97.70
10010;DHT22;5044;48.652;9.250;2023-02-13T10:52:20;9.30;96.40
10010;DHT22;5044;48.652;9.250;2023-02-13T10:55:08;9.40;98.00
10010;DHT22;5044;48.652;9.250;2023-02-13T10:57:52;9.70;95.40
10010;DHT22;5044;48.652;9.250;2023-02-13T11:00:26;9.60;93.40
10010;DHT22;5044;48.652;9.250;2023-02-13T11:02:59;9.80;99.90
10010;DHT22;5044;48.652;9.250;2023-02-13T11:05:31;9.80;97.00
10010;DHT22;5044;48.652;9.250;2023-02-13T11:08:00;10.00;96.00
10010;DHT22;5044;48.652;9.250;2023-02-13T11:10:29;9.80;97.70
10010;DHT22;5044;48.652;9.250;2023-02-13T11:12:57;10.10;96.80
10010;DHT22;5044;48.652;9.250;2023-02-13T11:15:55;10.00;94.00
10010;DHT22;5044;48.652;9.250;2023-02-13T11:18:23;10.40;94.60
10010;DHT22;5044;48.652;9.250;2023-02-13T11:20:59;10.30;97.60
10010;DHT22;5044;48.652;9.250;2023-02-13T11:23:39;10.60;92.70
10010;DHT22;5044;48.652;9.250;2023-02-13T11:26:08;10.70;94.40
10010;DHT22;5044;48.652;9.250;2023-02-13T11:28:37;10.70;94.00
10010;DHT22;5044;48.652;9.250;2023-02-13T11:31:12;10.70;96.50
10010;DHT22;5044;48.652;9.250;2023-02-13T11:33:43;11.00;94.40
10010;DHT22;5044;48.652;9.250;2023-02-13T11:36:30;11.10;94.10
10010;DHT22;5044;48.652;9.250;2023-02-13T11:39:17;10.80;92.40
10010;DHT22;5044;48.652;9.250;2023-02-13T11:41:47;10.60;92.20
10010;DHT22;5044;48.652;9.250;2023-02-13T11:44:24;11.00;92.00
10010;DHT22;5044;48.652;9.250;2023-02-13T11:46:53;11.20;93.90
10010;DHT22;5044;48.652;9.250;2023-02-13T11:49:28;11.70;93.70
10010;DHT22;5044;48.652;9.250;2023-02-13T11:52:03;11.70;92.20
10010;DHT22;5044;48.652;9.250;2023-02-13T11:54:32;12.00;94.00
10010;DHT22;5044;48.652;9.250;2023-02-13T11:57:01;12.10;92.70
10010;DHT22;5044;48.652;9.250;2023-02-13T11:59:38;12.20;94.40
10010;DHT22;5044;48.652;9.250;2023-02-13T12:02:16;12.30;91.10
10010;DHT22;5044;48.652;9.250;2023-02-13T12:05:16;12.10;92.20
10010;DHT22;5044;48.652;9.250;2023-02-13T12:07:48;11.50;88.00
10010;DHT22;5044;48.652;9.250;2023-02-13T12:10:32;11.70;91.20
10010;DHT22;5044;48.652;9.250;2023-02-13T12:13:14;11.90;83.60
10010;DHT22;5044;48.652;9.250;2023-02-13T12:15:50;12.00;88.00
10010;DHT22;5044;48.652;9.250;2023-02-13T12:18:30;12.30;91.50
10010;DHT22;5044;48.652;9.250;2023-02-13T12:21:10;12.50;90.90
10010;DHT22;5044;48.652;9.250;2023-02-13T12:24:02;12.70;89.60
10010;DHT22;5044;48.652;9.250;2023-02-13T12:26:33;12.40;89.50
10010;DHT22;5044;48.652;9.250;2023-02-13T12:29:33;12.80;92.80
10010;DHT22;5044;48.652;9.250;2023-02-13T12:32:09;13.00;83.30
10010;DHT22;5044;48.652;9.250;2023-02-13T12:38:04;13.30;84.40
10010;DHT22;5044;48.652;9.250;2023-02-13T12:41:01;13.50;88.00
10010;DHT22;5044;48.652;9.250;2023-02-13T12:47:05;13.00;90.70
10010;DHT22;5044;48.652;9.250;2023-02-13T12:50:04;13.70;80.40
10010;DHT22;5044;48.652;9.250;2023-02-13T12:52:56;13.60;81.30
10010;DHT22;5044;48.652;9.250;2023-02-13T12:55:46;13.70;89.30
10010;DHT22;5044;48.652;9.250;2023-02-13T12:58:44;13.90;84.50
10010;DHT22;5044;48.652;9.250;2023-02-13T13:11:59;14.40;73.60
10010;DHT22;5044;48.652;9.250;2023-02-13T13:17:51;14.60;79.70
10010;DHT22;5044;48.652;9.250;2023-02-13T13:21:13;14.70;82.20
10010;DHT22;5044;48.652;9.250;2023-02-13T13:23:47;14.10;80.10
10010;DHT22;5044;48.652;9.250;2023-02-13T13:26:21;14.00;73.10
10010;DHT22;5044;48.652;9.250;2023-02-13T13:29:09;14.30;88.70
10010;DHT22;5044;48.652;9.250;2023-02-13T13:31:40;14.00;70.80
10010;DHT22;5044;48.652;9.250;2023-02-13T13:34:17;14.60;78.10
10010;DHT22;5044;48.652;9.250;2023-02-13T13:36:53;14.50;83.00
10010;DHT22;5044;48.652;9.250;2023-02-13T13:39:41;14.60;74.80
10010;DHT22;5044;48.652;9.250;2023-02-13T13:42:17;14.80;87.40
10010;DHT22;5044;48.652;9.250;2023-02-13T13:45:18;14.60;70.20
10010;DHT22;5044;48.652;9.250;2023-02-13T13:50:51;14.40;74.70
10010;DHT22;5044;48.652;9.250;2023-02-13T13:53:20;14.20;77.90
10010;DHT22;5044;48.652;9.250;2023-02-13T13:56:12;14.60;88.50
10010;DHT22;5044;48.652;9.250;2023-02-13T13:58:42;14.80;73.90
10010;DHT22;5044;48.652;9.250;2023-02-13T14:01:27;14.90;81.20
10010;DHT22;5044;48.652;9.250;2023-02-13T14:03:57;14.80;79.10
10010;DHT22;5044;48.652;9.250;2023-02-13T14:06:27;14.70;74.70
10010;DHT22;5044;48.652;9.250;2023-02-13T14:09:00;14.80;83.50
10010;DHT22;5044;48.652;9.250;2023-02-13T14:11:42;15.00;84.50
10010;DHT22;5044;48.652;9.250;2023-02-13T14:17:15;14.90;87.50
10010;DHT22;5044;48.652;9.250;2023-02-13T14:19:49;14.80;83.70
10010;DHT22;5044;48.652;9.250;2023-02-13T14:22:34;14.90;76.40
10010;DHT22;5044;48.652;9.250;2023-02-13T14:25:05;14.90;83.60
10010;DHT22;5044;48.652;9.250;2023-02-13T14:27:34;14.80;78.90
10010;DHT22;5044;48.652;9.250;2023-02-13T14:30:06;15.00;86.40
10010;DHT22;5044;48.652;9.250;2023-02-13T14:32:50;14.90;77.80
10010;DHT22;5044;48.652;9.250;2023-02-13T14:35:22;14.80;80.30
10010;DHT22;5044;48.652;9.250;2023-02-13T14:38:00;14.50;76.20
10010;DHT22;5044;48.652;9.250;2023-02-13T14:40:50;14.70;72.70
10010;DHT22;5044;48.652;9.250;2023-02-13T14:43:26;14.80;88.20
10010;DHT22;5044;48.652;9.250;2023-02-13T14:45:56;14.60;79.20
10010;DHT22;5044;48.652;9.250;2023-02-13T14:48:32;14.60;85.10
10010;DHT22;5044;48.652;9.250;2023-02-13T14:51:02;14.60;86.50
10010;DHT22;5044;48.652;9.250;2023-02-13T14:53:37;14.40;79.40
10010;DHT22;5044;48.652;9.250;2023-02-13T14:56:12;14.20;75.30
10010;DHT22;5044;48.652;9.250;2023-02-13T14:58:46;14.40;76.00
10010;DHT22;5044;48.652;9.250;2023-02-13T15:01:24;14.30;88.10
10010;DHT22;5044;48.652;9.250;2023-02-13T15:03:57;14.30;83.80
10010;DHT22;5044;48.652;9.250;2023-02-13T15:06:28;14.20;82.20
10010;DHT22;5044;48.652;9.250;2023-02-13T15:09:02;14.20;87.50
10010;DHT22;5044;48.652;9.250;2023-02-13T15:11:37;14.00;89.60
10010;DHT22;5044;48.652;9.250;2023-02-13T15:14:16;13.90;87.50
10010;DHT22;5044;48.652;9.250;2023-02-13T15:16:45;13.80;90.30
10010;DHT22;5044;48.652;9.250;2023-02-13T15:19:17;13.30;79.30
10010;DHT22;5044;48.652;9.250;2023-02-13T15:21:49;13.20;89.70
10010;DHT22;5044;48.652;9.250;2023-02-13T15:24:19;13.20;91.70
10010;DHT22;5044;48.652;9.250;2023-02-13T15:27:02;13.00;87.50
10010;DHT22;5044;48.652;9.250;2023-02-13T15:29:32;12.70;91.30
10010;DHT22;5044;48.652;9.250;2023-02-13T15:31:59;12.60;90.80
10010;DHT22;5044;48.652;9.250;2023-02-13T15:34:29;12.50;80.70
10010;DHT22;5044;48.652;9.250;2023-02-13T15:36:59;12.40;92.50
10010;DHT22;5044;48.652;9.250;2023-02-13T15:39:29;12.30;79.40
10010;DHT22;5044;48.652;9.250;2023-02-13T15:41:58;12.00;90.50
10010;DHT22;5044;48.652;9.250;2023-02-13T15:44:28;12.00;91.90
10010;DHT22;5044;48.652;9.250;2023-02-13T15:47:04;12.20;93.00
10010;DHT22;5044;48.652;9.250;2023-02-13T15:49:36;11.70;92.80
10010;DHT22;5044;48.652;9.250;2023-02-13T15:52:07;11.60;93.60
10010;DHT22;5044;48.652;9.250;2023-02-13T15:54:34;11.30;89.50
10010;DHT22;5044;48.652;9.250;2023-02-13T15:57:04;11.20;91.90
10010;DHT22;5044;48.652;9.250;2023-02-13T15:59:35;11.00;93.30
10010;DHT22;5044;48.652;9.250;2023-02-13T16:02:04;11.00;94.50
10010;DHT22;5044;48.652;9.250;2023-02-13T16:04:40;10.60;92.80
10010;DHT22;5044;48.652;9.250;2023-02-13T16:07:09;10.60;95.00
10010;DHT22;5044;48.652;9.250;2023-02-13T16:09:37;10.40;92.90
10010;DHT22;5044;48.652;9.250;2023-02-13T16:12:05;10.30;94.80
10010;DHT22;5044;48.652;9.250;2023-02-13T16:14:46;10.20;95.20
10010;DHT22;5044;48.652;9.250;2023-02-13T16:17:16;10.10;95.90
10010;DHT22;5044;48.652;9.250;2023-02-13T16:19:52;10.00;94.80
10010;DHT22;5044;48.652;9.250;2023-02-13T16:22:29;9.60;97.60
10010;DHT22;5044;48.652;9.250;2023-02-13T16:25:08;9.50;95.00
10010;DHT22;5044;48.652;9.250;2023-02-13T16:27:42;9.30;95.50
10010;DHT22;5044;48.652;9.250;2023-02-13T16:30:26;9.10;98.70
10010;DHT22;5044;48.652;9.250;2023-02-13T16:33:19;9.10;96.90
10010;DHT22;5044;48.652;9.250;2023-02-13T16:35:49;9.00;97.00
10010;DHT22;5044;48.652;9.250;2023-02-13T16:38:32;8.70;97.50
10010;DHT22;5044;48.652;9.250;2023-02-13T16:41:28;8.60;97.30
10010;DHT22;5044;48.652;9.250;2023-02-13T16:43:55;8.50;98.70
10010;DHT22;5044;48.652;9.250;2023-02-13T16:46:32;8.40;99.20
10010;DHT22;5044;48.652;9.250;2023-02-13T16:49:18;8.20;98.80
10010;DHT22;5044;48.652;9.250;2023-02-13T16:51:53;7.90;99.90
10010;DHT22;5044;48.652;9.250;2023-02-13T16:54:27;7.90;99.90
10010;DHT22;5044;48.652;9.250;2023-02-13T16:57:13;7.90;99.90
10010;DHT22;5044;48.652;9.250;2023-02-13T16:59:50;7.90;99.90
10010;DHT22;5044;48.652;9.250;2023-02-13T17:02:21;7.50;99.90
10010;DHT22;5044;48.652;9.250;2023-02-13T17:04:50;7.30;99.90
10010;DHT22;5044;48.652;9.250;2023-02-13T17:07:22;7.30;99.90
10010;DHT22;5044;48.652;9.250;2023-02-13T17:10:16;7.20;98.70